Aérodrome :
LOGIN :

S'inscrire | Disclaimer

   EN    FR    IT 

 










Légende :    VFR   VFR Marginal   IFR   IFR Intensif   IFR Très Intensif
Visi : 
Plafond : 
>= 8 km
>= 3000ft
5 à 8 km
1000 à 3000 ft
1500m à 5 km
500 à 1000 ft
800 à 1500m
200 à 500 ft
< 800m
< 200 ft
Symboles :   Orages  Brouillard  Fortes neiges  Fortes précipitations  Vent > 20 kt
SIGMETs :   Divers  Orages  Givrage  Turbulence  Onde Orograph.  Cendres Volcan.







- Altitude de l'aérodrome : 13 ft
- Code IATA : CEQ
- Voir les cartes d'approche


LFMD - Cannes Mandelieu

DERNIER METAR :
  • 220400Z AUTO VRB03KT 9999 SCT029/// OVC088/// ///TCU 16/16 Q1011 TEMPO 4000 TSRA BKN030 SCT060CB

METARs EXPIRÉS :
  • 220330Z AUTO VRB02KT 9999 FEW012/// BKN031/// OVC088/// ///TCU 16/16 Q1011 TEMPO 4000 TSRA BKN030 SCT060CB
  • 220300Z AUTO 00000KT 9999 BKN012/// BKN031/// OVC088/// ///TCU 16/16 Q1011 TEMPO VRB10G20KT 4000 TSRA BKN030 SCT060CB
  • 220230Z AUTO 00000KT 9999 -DZ BKN011/// BKN016/// BKN032/// ///TCU 16/16 Q1011 TEMPO VRB10G20KT 4000 TSRA BKN030 SCT060CB
  • 220200Z AUTO 00000KT 9999 BKN011/// OVC017/// ///TCU 16/16 Q1012
  • 220130Z AUTO 33001KT 9999 -RA BKN010/// OVC018/// ///TCU 16/16 Q1012

TAF TAF LFMD
Valide du 22 à 03h jusqu'au 23 à 03h UTC


220200Z 2203/2303 01006KT 9999 SCT015 BKN080
TEMPO 2203/2212 SHRA BKN040 SCT060TCU
PROB40
TEMPO 2203/2211 VRB10G20KT 4000 TSRA BKN030 SCT060CB
BECMG 2209/2211 16010KT
ATIS : +33 4 93 48 73 23
Pas de NOTAMs connus pour ce terrain.



MET'MAP, la Météo Aéronautique d'un coup d'oeil ! - Copyright ORBIFLY Décembre 2007 - Disclaimer

ORBIFLY MET'MAP TEAM :

Programmation & Développement : Alexandra Zaïnal
Conception & Développement : Baudouin d'Aumeries
Co-Programmation & Développement : Marc-Olivier Méhu
Soutien technique & logistique : Manuel Goepfert

Contact : metmap@orbifly.com




SOURCES & CREDITS :

   NOAA